createdAt,value
2023-03-14T00:00:24.481Z,9.13
2023-03-14T00:03:12.350Z,9.12
2023-03-14T00:05:40.104Z,8.95
2023-03-14T00:08:08.037Z,8.95
2023-03-14T00:10:38.274Z,8.98
2023-03-14T00:13:06.361Z,8.90
2023-03-14T00:15:35.566Z,8.75
2023-03-14T00:18:04.058Z,8.78
2023-03-14T00:20:31.680Z,8.71
2023-03-14T00:22:59.712Z,8.70
2023-03-14T00:25:27.326Z,8.63
2023-03-14T00:27:55.242Z,8.64
2023-03-14T00:30:22.973Z,8.54
2023-03-14T00:32:51.004Z,8.73
2023-03-14T00:35:18.752Z,8.74
2023-03-14T00:37:47.711Z,8.66
2023-03-14T00:40:15.709Z,8.73
2023-03-14T00:42:43.636Z,8.57
2023-03-14T00:45:11.644Z,8.47
2023-03-14T00:47:39.495Z,8.45
2023-03-14T00:50:07.732Z,8.53
2023-03-14T00:52:35.752Z,8.56
2023-03-14T00:55:03.548Z,8.49
2023-03-14T00:57:31.635Z,8.38
2023-03-14T00:59:59.331Z,8.48
2023-03-14T01:02:27.383Z,8.37
2023-03-14T01:04:57.787Z,8.21
2023-03-14T01:07:25.848Z,8.25
2023-03-14T01:09:54.266Z,8.06
2023-03-14T01:12:22.337Z,7.99
2023-03-14T01:14:49.992Z,7.93
2023-03-14T01:17:17.923Z,8.05
2023-03-14T01:19:46.011Z,7.93
2023-03-14T01:22:14.025Z,7.93
2023-03-14T01:24:41.632Z,8.00
2023-03-14T01:27:09.659Z,8.09
2023-03-14T01:29:37.290Z,7.93
2023-03-14T01:32:05.891Z,7.88
2023-03-14T01:34:33.995Z,8.02
2023-03-14T01:37:02.010Z,7.94
2023-03-14T01:39:30.891Z,8.19
2023-03-14T01:42:00.346Z,7.98
2023-03-14T01:44:28.657Z,7.89
2023-03-14T01:46:56.854Z,7.70
2023-03-14T01:49:32.889Z,7.75
2023-03-14T01:52:17.558Z,7.66
2023-03-14T01:54:56.285Z,7.80
2023-03-14T01:57:28.514Z,7.68
2023-03-14T02:00:15.010Z,7.73
2023-03-14T02:02:56.727Z,7.74
2023-03-14T02:05:28.003Z,7.71
2023-03-14T02:08:03.167Z,7.58
2023-03-14T02:10:40.306Z,7.62
2023-03-14T02:13:10.110Z,7.57
2023-03-14T02:15:56.108Z,7.57
2023-03-14T02:18:53.307Z,7.52
2023-03-14T02:21:45.192Z,7.34
2023-03-14T02:24:37.740Z,7.16
2023-03-14T02:27:11.640Z,7.11
2023-03-14T02:30:09.490Z,7.11
2023-03-14T02:32:39.446Z,6.95
2023-03-14T02:35:12.484Z,6.95
2023-03-14T02:38:04.235Z,7.05
2023-03-14T02:40:36.709Z,6.91
2023-03-14T02:43:04.462Z,6.96
2023-03-14T02:45:43.747Z,6.97
2023-03-14T02:48:21.405Z,6.93
2023-03-14T02:50:53.278Z,6.79
2023-03-14T02:53:28.084Z,6.81
2023-03-14T02:55:58.825Z,6.81
2023-03-14T02:58:29.083Z,6.75
2023-03-14T03:01:04.638Z,6.66
2023-03-14T03:03:32.663Z,6.70
2023-03-14T03:06:00.676Z,6.68
2023-03-14T03:08:29.584Z,6.61
2023-03-14T03:10:59.645Z,6.70
2023-03-14T03:13:29.872Z,6.91
2023-03-14T03:15:59.211Z,6.87
2023-03-14T03:18:26.886Z,6.93
2023-03-14T03:20:54.914Z,6.96
2023-03-14T03:23:24.086Z,6.85
2023-03-14T03:25:52.671Z,6.92
2023-03-14T03:28:20.875Z,6.83
2023-03-14T03:30:49.142Z,6.89
2023-03-14T03:33:16.962Z,6.82
2023-03-14T03:35:51.167Z,6.85
2023-03-14T03:38:25.044Z,6.82
2023-03-14T03:40:55.382Z,6.88
2023-03-14T03:43:26.594Z,6.81
2023-03-14T03:45:54.588Z,6.67
2023-03-14T03:48:24.723Z,6.64
2023-03-14T03:50:52.987Z,6.67
2023-03-14T03:53:32.699Z,6.51
2023-03-14T03:56:02.605Z,6.63
2023-03-14T03:58:30.819Z,6.65
2023-03-14T04:00:58.712Z,6.79
2023-03-14T04:03:27.196Z,6.74
2023-03-14T04:06:06.343Z,6.84
2023-03-14T04:08:36.409Z,6.76
2023-03-14T04:11:05.248Z,6.77
2023-03-14T04:13:53.153Z,6.90
2023-03-14T04:16:26.271Z,6.99
2023-03-14T04:19:00.424Z,6.97
2023-03-14T04:21:29.034Z,6.86
2023-03-14T04:23:58.828Z,6.90
2023-03-14T04:26:30.956Z,6.87
2023-03-14T04:28:58.825Z,6.76
2023-03-14T04:31:26.814Z,6.79
2023-03-14T04:33:54.669Z,6.71
2023-03-14T04:36:30.746Z,6.53
2023-03-14T04:39:05.133Z,6.74
2023-03-14T04:41:34.614Z,6.57
2023-03-14T04:44:02.490Z,6.58
2023-03-14T04:46:30.566Z,6.55
2023-03-14T04:48:58.574Z,6.70
2023-03-14T04:51:28.407Z,6.53
2023-03-14T04:53:56.382Z,6.69
2023-03-14T04:56:24.606Z,6.80
2023-03-14T04:58:52.392Z,6.96
2023-03-14T05:01:20.320Z,6.89
2023-03-14T05:04:17.517Z,7.11
2023-03-14T05:07:20.699Z,6.87
2023-03-14T05:09:59.520Z,7.04
2023-03-14T05:12:45.168Z,7.09
2023-03-14T05:15:32.597Z,7.24
2023-03-14T05:18:23.759Z,7.29
2023-03-14T05:21:00.944Z,7.46
2023-03-14T05:23:52.199Z,7.60
2023-03-14T05:26:37.058Z,7.75
2023-03-14T05:29:24.634Z,7.79
2023-03-14T05:32:10.915Z,7.90
2023-03-14T05:34:59.876Z,7.91
2023-03-14T05:37:47.382Z,7.92
2023-03-14T05:40:25.028Z,7.97
2023-03-14T05:43:02.960Z,8.14
2023-03-14T05:45:49.721Z,8.30
2023-03-14T05:48:35.964Z,8.59
2023-03-14T05:51:17.733Z,8.96
2023-03-14T05:54:01.347Z,9.74
2023-03-14T05:56:43.030Z,10.33
2023-03-14T05:59:17.370Z,9.96
2023-03-14T06:01:56.088Z,10.10
2023-03-14T06:04:27.430Z,11.65
2023-03-14T06:06:59.877Z,12.99
2023-03-14T06:09:27.749Z,12.75
2023-03-14T06:11:58.802Z,12.81
2023-03-14T06:14:26.951Z,11.94
2023-03-14T06:16:55.161Z,11.85
2023-03-14T06:19:25.917Z,12.68
2023-03-14T06:21:54.205Z,13.33
2023-03-14T06:24:22.018Z,13.45
2023-03-14T06:26:54.255Z,13.48
2023-03-14T06:29:22.269Z,13.32
2023-03-14T06:31:50.283Z,13.26
2023-03-14T06:34:19.729Z,13.00
2023-03-14T06:36:48.134Z,12.30
2023-03-14T06:39:16.300Z,12.22
2023-03-14T06:41:48.682Z,11.74
2023-03-14T06:44:16.529Z,11.49
2023-03-14T06:46:45.765Z,11.46
2023-03-14T06:49:13.495Z,11.74
2023-03-14T06:51:41.843Z,12.23
2023-03-14T06:54:11.575Z,13.75
2023-03-14T06:56:39.611Z,14.12
2023-03-14T06:59:08.432Z,14.36
2023-03-14T07:01:37.326Z,14.77
2023-03-14T07:04:08.029Z,14.65
2023-03-14T07:06:38.094Z,14.58
2023-03-14T07:09:06.684Z,14.58
2023-03-14T07:11:38.010Z,14.98
2023-03-14T07:14:06.150Z,15.11
2023-03-14T07:16:34.162Z,15.07
2023-03-14T07:19:03.010Z,14.58
2023-03-14T07:21:32.968Z,14.06
2023-03-14T07:24:01.359Z,14.12
2023-03-14T07:26:29.477Z,14.39
2023-03-14T07:28:57.431Z,14.08
2023-03-14T07:31:25.698Z,13.71
2023-03-14T07:33:54.220Z,13.73
2023-03-14T07:36:24.282Z,13.75
2023-03-14T07:38:52.809Z,13.63
2023-03-14T07:41:38.885Z,13.30
2023-03-14T07:44:41.631Z,13.29
2023-03-14T07:47:09.569Z,13.74
2023-03-14T07:49:37.342Z,13.85
2023-03-14T07:52:05.385Z,15.14
2023-03-14T07:54:33.014Z,16.93
2023-03-14T07:57:01.685Z,17.90
2023-03-14T07:59:29.678Z,19.33
2023-03-14T08:01:57.595Z,20.49
2023-03-14T08:04:25.337Z,21.78
2023-03-14T08:06:55.362Z,21.72
2023-03-14T08:09:23.125Z,20.84
2023-03-14T08:11:51.040Z,21.13
2023-03-14T08:14:18.797Z,21.21
2023-03-14T08:16:46.837Z,22.55
2023-03-14T08:19:14.484Z,23.60
2023-03-14T08:21:42.520Z,25.04
2023-03-14T08:24:10.588Z,24.79
2023-03-14T08:26:38.525Z,24.24
2023-03-14T08:29:06.475Z,23.21
2023-03-14T08:31:35.427Z,23.12
2023-03-14T08:34:04.025Z,23.37
2023-03-14T08:36:32.069Z,23.89
2023-03-14T08:38:59.949Z,24.48
2023-03-14T08:41:27.980Z,24.44
2023-03-14T08:43:55.749Z,23.19
2023-03-14T08:46:23.803Z,22.83
2023-03-14T08:48:51.574Z,23.16
2023-03-14T08:51:19.547Z,23.75
2023-03-14T08:53:47.473Z,24.20
2023-03-14T08:56:15.384Z,24.42
2023-03-14T08:58:44.951Z,24.75
2023-03-14T09:01:13.184Z,24.83
2023-03-14T09:03:40.892Z,23.97
2023-03-14T09:06:11.071Z,23.89
2023-03-14T09:08:39.627Z,22.94
2023-03-14T09:11:10.955Z,23.25
2023-03-14T09:13:39.026Z,22.98
2023-03-14T09:16:07.550Z,23.33
2023-03-14T09:18:35.251Z,23.77
2023-03-14T09:21:03.392Z,22.55
2023-03-14T09:23:31.026Z,23.25
2023-03-14T09:26:00.007Z,23.49
2023-03-14T09:28:28.181Z,24.18
2023-03-14T09:30:56.268Z,25.72
2023-03-14T09:33:23.992Z,25.60
2023-03-14T09:35:52.040Z,25.75
2023-03-14T09:38:21.798Z,25.79
2023-03-14T09:40:50.841Z,26.52
2023-03-14T09:43:18.671Z,26.43
2023-03-14T09:45:48.789Z,26.33
2023-03-14T09:48:35.837Z,26.15
2023-03-14T09:51:12.681Z,26.17
2023-03-14T09:53:45.865Z,25.47
2023-03-14T09:56:20.943Z,23.78
2023-03-14T09:59:14.574Z,23.11
2023-03-14T10:01:42.499Z,22.39
2023-03-14T10:04:21.978Z,22.19
2023-03-14T10:06:49.944Z,22.54
2023-03-14T10:09:26.491Z,22.95
2023-03-14T10:11:58.389Z,22.63
2023-03-14T10:14:35.529Z,22.20
2023-03-14T10:17:12.171Z,21.89
2023-03-14T10:19:53.872Z,21.63
2023-03-14T10:22:24.070Z,21.44
2023-03-14T10:25:00.250Z,21.01
2023-03-14T10:27:37.055Z,20.20
2023-03-14T10:30:28.078Z,19.86
2023-03-14T10:32:56.024Z,19.34
2023-03-14T10:35:24.938Z,19.18
2023-03-14T10:38:01.148Z,19.31
2023-03-14T10:40:39.878Z,19.21
2023-03-14T10:43:15.518Z,19.06
2023-03-14T10:45:46.743Z,19.23
2023-03-14T10:48:22.874Z,19.33
2023-03-14T10:51:08.011Z,19.58
2023-03-14T10:54:27.073Z,19.41
2023-03-14T10:57:02.744Z,19.21
2023-03-14T10:59:40.158Z,18.86
2023-03-14T11:02:16.502Z,18.61
2023-03-14T11:04:47.218Z,18.46
2023-03-14T11:07:14.913Z,18.12
2023-03-14T11:09:54.736Z,17.68
2023-03-14T11:12:48.062Z,17.20
2023-03-14T11:15:54.773Z,16.87
2023-03-14T11:19:04.992Z,16.75
2023-03-14T11:21:46.068Z,16.79
2023-03-14T11:24:49.626Z,16.58
2023-03-14T11:27:40.877Z,16.79
2023-03-14T11:30:35.561Z,16.90
2023-03-14T11:33:22.176Z,16.84
2023-03-14T11:36:09.920Z,16.90
2023-03-14T11:38:56.453Z,17.16
2023-03-14T11:41:50.372Z,17.56
2023-03-14T11:44:22.746Z,17.59
2023-03-14T11:47:25.848Z,18.03
2023-03-14T11:50:05.539Z,18.64
2023-03-14T11:52:44.310Z,18.53
2023-03-14T11:55:46.056Z,18.59
2023-03-14T11:58:28.332Z,18.21
2023-03-14T12:00:58.834Z,17.54
2023-03-14T12:03:43.920Z,17.36
2023-03-14T12:06:24.305Z,17.11
2023-03-14T12:09:01.487Z,17.15
2023-03-14T12:11:47.432Z,16.75
2023-03-14T12:14:32.093Z,16.73
2023-03-14T12:17:08.948Z,16.45
2023-03-14T12:19:39.213Z,16.39
2023-03-14T12:22:29.807Z,16.52
2023-03-14T12:25:22.586Z,17.29
2023-03-14T12:27:55.780Z,17.60
2023-03-14T12:30:29.383Z,17.49
2023-03-14T12:33:16.327Z,17.28
2023-03-14T12:35:45.048Z,17.73
2023-03-14T12:38:13.041Z,17.99
2023-03-14T12:41:02.585Z,17.70
2023-03-14T12:43:35.142Z,17.51
2023-03-14T12:46:23.907Z,17.10
2023-03-14T12:49:06.122Z,16.72
2023-03-14T12:51:44.614Z,16.69
2023-03-14T12:54:36.619Z,16.85
2023-03-14T12:57:19.224Z,16.91
2023-03-14T12:59:56.684Z,16.90
2023-03-14T13:02:29.661Z,16.75
2023-03-14T13:05:15.937Z,16.65
2023-03-14T13:07:49.763Z,16.32
2023-03-14T13:10:20.949Z,16.18
2023-03-14T13:13:11.841Z,16.00
2023-03-14T13:15:45.365Z,15.79
2023-03-14T13:18:33.953Z,15.42
2023-03-14T13:21:25.227Z,15.32
2023-03-14T13:24:04.966Z,15.21
2023-03-14T13:26:38.860Z,15.18
2023-03-14T13:29:25.167Z,14.95
2023-03-14T13:31:58.726Z,15.08
2023-03-14T13:34:35.967Z,14.93
2023-03-14T13:37:04.061Z,14.92
2023-03-14T13:39:34.034Z,14.69
2023-03-14T13:42:02.897Z,14.52
2023-03-14T13:44:30.636Z,14.21
2023-03-14T13:47:03.158Z,14.20
2023-03-14T13:49:33.639Z,14.08
2023-03-14T13:52:01.587Z,13.65
2023-03-14T13:54:32.162Z,13.48
2023-03-14T13:57:06.222Z,13.35
2023-03-14T13:59:36.286Z,13.20
2023-03-14T14:02:16.719Z,13.06
2023-03-14T14:04:47.244Z,13.00
2023-03-14T14:07:21.363Z,12.91
2023-03-14T14:09:54.419Z,12.84
2023-03-14T14:12:22.671Z,12.78
2023-03-14T14:15:02.003Z,12.63
2023-03-14T14:18:05.506Z,12.51
2023-03-14T14:20:42.313Z,12.46
2023-03-14T14:23:30.039Z,12.55
2023-03-14T14:25:58.915Z,12.48
2023-03-14T14:28:35.996Z,12.44
2023-03-14T14:31:23.078Z,12.22
2023-03-14T14:34:04.948Z,12.21
2023-03-14T14:36:41.632Z,12.21
2023-03-14T14:39:27.592Z,12.21
2023-03-14T14:41:55.490Z,12.12
2023-03-14T14:44:35.958Z,11.85
2023-03-14T14:47:06.802Z,11.98
2023-03-14T14:49:35.344Z,11.70
2023-03-14T14:52:17.809Z,11.79
2023-03-14T14:54:52.093Z,11.71
2023-03-14T14:57:29.464Z,11.50
2023-03-14T15:00:02.188Z,11.54
2023-03-14T15:02:31.814Z,11.52
2023-03-14T15:05:00.307Z,11.55
2023-03-14T15:07:28.307Z,11.64
2023-03-14T15:09:56.339Z,11.52
2023-03-14T15:12:25.725Z,11.24
2023-03-14T15:14:53.829Z,11.13
2023-03-14T15:17:21.425Z,11.16
2023-03-14T15:19:49.633Z,11.19
2023-03-14T15:22:17.574Z,11.26
2023-03-14T15:24:45.678Z,11.17
2023-03-14T15:27:18.903Z,11.12
2023-03-14T15:29:46.893Z,11.06
2023-03-14T15:32:17.475Z,11.06
2023-03-14T15:34:45.954Z,11.06
2023-03-14T15:37:16.687Z,11.19
2023-03-14T15:39:45.027Z,11.06
2023-03-14T15:42:13.159Z,10.77
2023-03-14T15:44:41.758Z,10.84
2023-03-14T15:47:11.367Z,10.81
2023-03-14T15:49:39.260Z,10.80
2023-03-14T15:52:08.696Z,10.70
2023-03-14T15:54:37.034Z,10.79
2023-03-14T15:57:05.143Z,10.66
2023-03-14T15:59:33.213Z,10.71
2023-03-14T16:02:00.873Z,10.83
2023-03-14T16:04:30.386Z,10.77
2023-03-14T16:06:58.235Z,10.75
2023-03-14T16:09:27.359Z,10.66
2023-03-14T16:11:55.578Z,10.66
2023-03-14T16:14:24.613Z,10.60
2023-03-14T16:16:53.804Z,10.70
2023-03-14T16:19:21.840Z,10.73
2023-03-14T16:21:52.107Z,10.60
2023-03-14T16:24:20.588Z,10.72
2023-03-14T16:26:48.837Z,10.57
2023-03-14T16:29:17.259Z,10.82
2023-03-14T16:31:45.070Z,10.72
2023-03-14T16:34:13.844Z,10.69
2023-03-14T16:36:41.630Z,10.62
2023-03-14T16:39:09.916Z,10.57
2023-03-14T16:41:37.659Z,10.55
2023-03-14T16:44:05.640Z,10.53
2023-03-14T16:46:34.901Z,10.52
2023-03-14T16:49:03.442Z,10.60
2023-03-14T16:51:31.312Z,10.48
2023-03-14T16:53:59.323Z,10.42
2023-03-14T16:56:27.024Z,10.52
2023-03-14T16:58:56.056Z,10.45
2023-03-14T17:01:23.902Z,10.41
2023-03-14T17:03:52.667Z,10.42
2023-03-14T17:06:26.532Z,10.61
2023-03-14T17:08:55.220Z,10.52
2023-03-14T17:11:23.375Z,10.42
2023-03-14T17:13:51.366Z,10.40
2023-03-14T17:16:19.622Z,10.50
2023-03-14T17:18:47.793Z,10.49
2023-03-14T17:21:15.539Z,10.58
2023-03-14T17:23:43.627Z,10.44
2023-03-14T17:26:12.984Z,10.46
2023-03-14T17:28:41.863Z,10.37
2023-03-14T17:31:18.083Z,10.47
2023-03-14T17:33:46.715Z,10.47
2023-03-14T17:36:14.858Z,10.48
2023-03-14T17:38:42.994Z,10.42
2023-03-14T17:41:15.888Z,10.41
2023-03-14T17:43:45.954Z,10.39
2023-03-14T17:46:15.736Z,10.39
2023-03-14T17:48:45.687Z,10.39
2023-03-14T17:51:14.583Z,10.33
2023-03-14T17:53:42.613Z,10.35
2023-03-14T17:56:11.786Z,10.37
2023-03-14T17:58:43.916Z,10.29
2023-03-14T18:01:12.716Z,10.35
2023-03-14T18:03:41.801Z,10.47
2023-03-14T18:06:11.027Z,10.45
2023-03-14T18:08:43.998Z,10.48
2023-03-14T18:11:12.134Z,10.55
2023-03-14T18:13:41.359Z,10.56
2023-03-14T18:16:14.035Z,10.51
2023-03-14T18:18:45.052Z,10.69
2023-03-14T18:21:13.640Z,10.58
2023-03-14T18:23:41.516Z,10.56
2023-03-14T18:26:09.483Z,10.68
2023-03-14T18:28:37.529Z,10.58
2023-03-14T18:31:11.251Z,10.58
2023-03-14T18:33:41.647Z,10.60
2023-03-14T18:36:11.075Z,10.54
2023-03-14T18:38:43.428Z,10.53
2023-03-14T18:41:14.009Z,10.49
2023-03-14T18:43:43.266Z,10.51
2023-03-14T18:46:14.236Z,10.54
2023-03-14T18:48:42.805Z,10.47
2023-03-14T18:51:13.223Z,10.41
2023-03-14T18:53:44.907Z,10.25
2023-03-14T18:56:14.165Z,10.15
2023-03-14T18:58:43.226Z,10.05
2023-03-14T19:01:12.648Z,9.91
2023-03-14T19:03:42.206Z,9.98
2023-03-14T19:06:11.153Z,9.88
2023-03-14T19:08:42.193Z,9.85
2023-03-14T19:11:13.063Z,9.93
2023-03-14T19:13:42.624Z,9.79
2023-03-14T19:16:15.110Z,9.76
2023-03-14T19:18:43.562Z,9.66
2023-03-14T19:21:14.940Z,9.71
2023-03-14T19:23:46.519Z,9.59
2023-03-14T19:26:16.280Z,9.64
2023-03-14T19:28:44.368Z,9.65
2023-03-14T19:31:12.152Z,9.63
2023-03-14T19:33:40.235Z,9.57
2023-03-14T19:36:09.739Z,9.49
2023-03-14T19:38:37.810Z,9.53
2023-03-14T19:41:05.886Z,9.50
2023-03-14T19:43:34.141Z,9.50
2023-03-14T19:46:01.866Z,9.51
2023-03-14T19:48:30.569Z,9.42
2023-03-14T19:51:01.489Z,9.46
2023-03-14T19:53:30.080Z,9.42
2023-03-14T19:55:58.186Z,9.51
2023-03-14T19:58:26.186Z,9.36
2023-03-14T20:00:55.532Z,9.36
2023-03-14T20:03:24.316Z,9.27
2023-03-14T20:05:55.790Z,9.23
2023-03-14T20:08:24.341Z,9.04
2023-03-14T20:10:52.297Z,9.01
2023-03-14T20:13:22.185Z,9.09
2023-03-14T20:15:53.095Z,9.02
2023-03-14T20:18:23.271Z,9.11
2023-03-14T20:20:52.141Z,8.96
2023-03-14T20:23:20.185Z,8.95
2023-03-14T20:25:58.852Z,9.02
2023-03-14T20:28:27.077Z,8.90
2023-03-14T20:30:55.124Z,8.85
2023-03-14T20:33:24.500Z,8.77
2023-03-14T20:35:57.389Z,8.72
2023-03-14T20:38:27.195Z,8.73
2023-03-14T20:40:59.924Z,8.79
2023-03-14T20:43:29.737Z,8.59
2023-03-14T20:45:59.307Z,8.47
2023-03-14T20:48:29.514Z,8.50
2023-03-14T20:50:57.745Z,8.44
2023-03-14T20:53:26.144Z,8.45
2023-03-14T20:55:56.690Z,8.35
2023-03-14T20:58:25.419Z,8.20
2023-03-14T21:00:56.299Z,8.16
2023-03-14T21:03:25.374Z,8.13
2023-03-14T21:05:54.145Z,8.09
2023-03-14T21:08:24.300Z,8.09
2023-03-14T21:10:54.832Z,8.07
2023-03-14T21:13:23.877Z,8.01
2023-03-14T21:15:51.862Z,7.98
2023-03-14T21:18:20.279Z,8.03
2023-03-14T21:20:47.961Z,7.99
2023-03-14T21:23:17.908Z,7.95
2023-03-14T21:25:46.642Z,8.08
2023-03-14T21:28:15.401Z,8.06
2023-03-14T21:30:43.286Z,7.98
2023-03-14T21:33:11.529Z,7.97
2023-03-14T21:35:39.281Z,7.84
2023-03-14T21:38:07.341Z,7.71
2023-03-14T21:40:36.228Z,7.97
2023-03-14T21:43:04.854Z,7.87
2023-03-14T21:45:35.962Z,7.85
2023-03-14T21:48:03.934Z,7.79
2023-03-14T21:50:31.564Z,7.81
2023-03-14T21:52:59.574Z,7.77
2023-03-14T21:55:27.308Z,7.82
2023-03-14T21:57:56.062Z,7.77
2023-03-14T22:00:26.155Z,7.79
2023-03-14T22:03:11.811Z,7.80
2023-03-14T22:05:44.110Z,7.75
2023-03-14T22:08:14.328Z,7.79
2023-03-14T22:10:51.099Z,7.75
2023-03-14T22:13:20.326Z,7.90
2023-03-14T22:15:49.867Z,7.93
2023-03-14T22:18:19.081Z,7.90
2023-03-14T22:20:47.119Z,8.15
2023-03-14T22:23:15.275Z,8.23
2023-03-14T22:25:44.360Z,8.36
2023-03-14T22:28:12.456Z,8.55
2023-03-14T22:30:40.354Z,8.68
2023-03-14T22:33:08.646Z,8.65
2023-03-14T22:35:36.326Z,8.69
2023-03-14T22:38:04.327Z,8.69
2023-03-14T22:40:32.016Z,8.69
2023-03-14T22:43:00.020Z,8.71
2023-03-14T22:45:27.721Z,8.79
2023-03-14T22:47:55.725Z,8.94
2023-03-14T22:50:23.367Z,8.83
2023-03-14T22:52:51.302Z,8.88
2023-03-14T22:55:19.097Z,8.85
2023-03-14T22:57:50.560Z,8.82
2023-03-14T23:00:18.422Z,8.87
2023-03-14T23:02:47.144Z,8.80
2023-03-14T23:05:15.055Z,8.94
2023-03-14T23:07:42.896Z,8.92
2023-03-14T23:10:11.616Z,8.97
2023-03-14T23:12:39.551Z,8.97
2023-03-14T23:15:08.445Z,9.09
2023-03-14T23:17:36.694Z,9.13
2023-03-14T23:20:06.624Z,9.11
2023-03-14T23:22:34.864Z,9.12
2023-03-14T23:25:03.816Z,9.07
2023-03-14T23:27:32.245Z,9.14
2023-03-14T23:29:59.978Z,9.11
2023-03-14T23:32:28.544Z,9.15
2023-03-14T23:34:56.233Z,9.10
2023-03-14T23:37:26.437Z,9.19
2023-03-14T23:39:54.345Z,9.18
2023-03-14T23:42:22.014Z,9.16
2023-03-14T23:44:50.231Z,9.14
2023-03-14T23:47:17.871Z,9.22
2023-03-14T23:49:45.743Z,9.22
2023-03-14T23:52:13.451Z,9.23
2023-03-14T23:54:41.416Z,9.35
2023-03-14T23:57:10.086Z,9.30
2023-03-14T23:59:39.475Z,9.32
